Ashley, Ohio
Current Conditions -  °F | °C
As of 9:36 AM on Friday 24 Oct 2014 (Local Time) from KDLZ Reporting Station
Haze Haze  
Wind Chill: 41°   Ceiling: Unl
Heat Index: 41°   Visibility: 3mi
Dew Point: 39°   Wind: 0mph
Humidity: 93%   Direction: NA
Pressure: 30.12"   Gusts: NA
Location:  40.41°N, 82.96°W
Report Text: KDLZ 241336Z AUTO 00000KT 3SM BR CLR 05/04 A3012 RMK AO2
Loading
Personal Weather Stations






























Interactive Weather Map New forecast layout! Learn more

10-Day Weather Forecast

Advertisements
Track Severe Weather on mobile